Cincinnati, OH (45247)

8:17 AM EDT on September 16, 2014 (GMT -0400)
The Compound, White Oak | Change Station
CLOSE
Current Station
Personal Weather Station
Location: Cincinnati, OH
Elevation: 901 ft
Nearby Weather Stations

Elev 901 ft 39.20 °N, 84.61 °W | Updated 11 seconds ago

Overcast
Overcast
55.9 °F
Feels Like 55.9 °F
N
0.0
Wind Variable Wind from NNE
Gusts 0.0 mph

Today
High -- | Low -- °F
--% Chance of Precip.
Yesterday
High -- | Low -- °F
Precip. -- in
7:20 AM 7:45 PM
Last Quarter, 46% visible
Pressure 30.13 in
Visibility 6.0 miles
Clouds Few 800 ft
Overcast 1500 ft
Dew Point 56 °F
Humidity 100%
Rainfall 0.00 in
Snow Depth Not available.
UV 0 out of 12
Pollen 4.90 out of 12
Ozone Good
PM2.5 Good
Flu Activity Not available.
METAR KCVG 161152Z 01007KT 6SM BR FEW008 OVC015 14/13 A3014 RMK AO2 SLP203 60000 70020 T01440128 10150 20144 53014

More Conditions Fewer Conditions

Pressure 30.13 in
Visibility 6.0 miles
Clouds Few 800 ft
Overcast 1500 ft
Dew Point 56 °F
Humidity 100%
Rainfall 0.00 in
Snow Depth Not available.
UV 0 out of 12
Pollen 4.90 out of 12
Ozone Good
PM2.5 Good
Flu Activity Not available.
METAR KCVG 161152Z 01007KT 6SM BR FEW008 OVC015 14/13 A3014 RMK AO2 SLP203 60000 70020 T01440128 10150 20144 53014

More Conditions Fewer Conditions

10-Day Weather Forecast

Almanac

Astronomy

Sep. 16, 2014 Rise Set
Actual Time 7:20 AM EDT 7:45 PM EDT
Civil Twilight 6:53 AM EDT 8:12 PM EDT
Nautical Twilight 6:22 AM EDT 8:43 PM EDT
Astronomical Twilight 5:50 AM EDT 9:15 PM EDT
Moon 12:31 AM EDT 3:06 PM EDT
Length of Visible Light 13h 18m
Length of Day
12h 24m
Tomorrow will be 2m 32s shorter.
Last Quarter, 46% of the Moon is Illuminated
Today
Last Quarter
Sep 24
New
Oct 1
First Quarter
Oct 8
Full
Oct 15
Last Quarter

Today's Extremes

State Highs State Lows

Community

WunderPhotos

Upload Photos

1,753,743 photos uploaded!

Nearby

Air Quality

  Air Quality AQ Index Pollutant
Yesterday Good
PM10
Yesterday Good
OZONE
Current Good
PM2.5
Current Good
OZONE
Tuesday Good
PM2.5
Tuesday Good
OZONE

Snow Depth

Station Depth Elevation
No new snow has been reported.

Earthquake Activity

City Distance Mag. Time & Date
No recent earthquake activity has been reported nearby.
Minimum magnitude displayed is 2.5.

Coastal Water Temperatures

Place Temperature
No Stations Reporting

Nearby Weather Stations